Time;durP1;ratioP1;P1;durP2;ratioP2;P2;SDS_P1;SDS_P2;PMS_P1;PMS_P2;Temp;Humidity;BMP_temperature;BMP_pressure;BME280_temperature;BME280_humidity;BME280_pressure;Samples;Min_cycle;Max_cycle;Signal;HPM_P1;HPM_P2
2022/01/14 00:01:52;;;;;;;63.63;27.20;;;0.20;69.10;;;;;;5053428;28;20466;-71
2022/01/14 00:04:18;;;;;;;62.45;26.52;;;0.20;69.10;;;;;;5058266;28;20090;-70
2022/01/14 00:06:44;;;;;;;69.53;28.10;;;0.10;69.10;;;;;;5045478;28;20025;-70
2022/01/14 00:09:12;;;;;;;60.65;27.70;;;0.30;69.30;;;;;;5036229;28;20037;-71
2022/01/14 00:11:43;;;;;;;65.03;27.38;;;0.20;69.10;;;;;;5044090;28;20040;-70
2022/01/14 00:16:40;;;;;;;62.50;27.05;;;0.20;69.30;;;;;;5038873;28;20036;-70
2022/01/14 00:19:06;;;;;;;67.15;28.27;;;0.20;69.30;;;;;;5045980;28;20029;-71
2022/01/14 00:21:34;;;;;;;55.97;25.58;;;0.20;69.30;;;;;;5043236;28;20025;-71
2022/01/14 00:32:09;;;;;;;41.13;19.52;;;0.20;69.10;;;;;;5038171;28;19955;-71
2022/01/14 00:34:34;;;;;;;54.65;23.38;;;0.40;68.80;;;;;;5042268;28;20041;-71
2022/01/14 00:37:01;;;;;;;58.20;25.23;;;0.20;68.70;;;;;;5035182;28;20025;-71
2022/01/14 00:39:27;;;;;;;55.20;24.05;;;0.20;68.80;;;;;;5045449;28;20033;-71
2022/01/14 00:41:53;;;;;;;60.38;25.30;;;0.10;68.80;;;;;;5040846;28;20072;-71
2022/01/14 00:44:20;;;;;;;55.58;25.15;;;0.10;68.80;;;;;;5039256;28;20540;-71
2022/01/14 00:46:47;;;;;;;53.33;25.08;;;0.10;68.80;;;;;;5053878;28;20504;-71
2022/01/14 00:49:15;;;;;;;53.47;24.25;;;0.10;68.90;;;;;;5043185;28;20029;-71
2022/01/14 00:51:41;;;;;;;51.47;23.45;;;0.10;68.90;;;;;;5048553;28;20037;-71
2022/01/14 00:54:08;;;;;;;55.72;25.55;;;0.10;69.00;;;;;;5036318;28;20029;-71
2022/01/14 00:59:13;;;;;;;58.72;25.98;;;0.10;69.00;;;;;;5036576;28;20033;-71
2022/01/14 00:59:19;;;;;;;47.97;22.63;;;0.10;69.00;;;;;;5032899;28;20037;-70
2022/01/14 01:01:51;;;;;;;51.70;24.45;;;0.10;68.90;;;;;;5034146;28;20108;-71
2022/01/14 01:04:20;;;;;;;55.47;25.10;;;0.10;69.00;;;;;;5035285;28;20033;-71
2022/01/14 01:06:47;;;;;;;57.28;25.42;;;0.10;69.00;;;;;;5033701;28;20075;-71
2022/01/14 01:09:14;;;;;;;57.05;25.38;;;0.10;69.20;;;;;;5045119;28;20039;-71
2022/01/14 01:12:05;;;;;;;51.88;24.75;;;0.00;69.20;;;;;;5053854;28;20450;-72
2022/01/14 01:14:41;;;;;;;51.95;23.45;;;0.00;69.30;;;;;;5035550;28;20139;-71
2022/01/14 01:17:07;;;;;;;57.33;24.65;;;0.00;69.10;;;;;;5033884;28;20053;-71
2022/01/14 01:19:33;;;;;;;54.17;23.75;;;0.00;69.10;;;;;;5033821;28;20041;-71
2022/01/14 01:21:59;;;;;;;53.38;23.63;;;0.20;69.30;;;;;;5045841;28;20525;-71
2022/01/14 01:24:25;;;;;;;54.55;24.55;;;0.00;69.10;;;;;;5041122;28;20073;-71
2022/01/14 01:26:51;;;;;;;49.83;24.05;;;0.00;69.20;;;;;;5035606;28;20017;-71
2022/01/14 01:31:49;;;;;;;51.80;24.13;;;0.00;69.40;;;;;;5036882;28;20098;-71
2022/01/14 01:34:17;;;;;;;52.15;25.20;;;-0.10;69.30;;;;;;5049727;28;20485;-71
2022/01/14 01:36:46;;;;;;;52.83;23.35;;;0.00;69.40;;;;;;5048668;28;20037;-71
2022/01/14 01:39:15;;;;;;;51.38;23.70;;;-0.10;69.30;;;;;;5051551;28;20031;-71
2022/01/14 01:41:45;;;;;;;49.67;23.55;;;-0.10;69.20;;;;;;5044031;28;20090;-71
2022/01/14 01:44:11;;;;;;;49.45;23.45;;;0.00;69.30;;;;;;5049310;28;20029;-71
2022/01/14 01:46:40;;;;;;;46.80;22.88;;;0.00;69.30;;;;;;5043551;28;20032;-71
2022/01/14 01:49:07;;;;;;;47.75;23.88;;;0.10;69.20;;;;;;5045444;28;20581;-71
2022/01/14 01:51:33;;;;;;;50.85;24.10;;;-0.10;69.20;;;;;;5046162;28;20036;-71
2022/01/14 01:53:59;;;;;;;47.95;24.30;;;-0.10;69.20;;;;;;5052630;28;20037;-72
2022/01/14 01:56:25;;;;;;;52.28;22.85;;;-0.10;69.00;;;;;;5043568;28;20107;-71
2022/01/14 01:58:50;;;;;;;52.42;23.42;;;-0.10;69.00;;;;;;5046369;28;20469;-71
2022/01/14 02:01:17;;;;;;;52.10;23.27;;;0.10;69.10;;;;;;5046922;28;20367;-71
2022/01/14 02:03:43;;;;;;;54.10;25.65;;;-0.20;68.90;;;;;;5051935;28;20066;-71
2022/01/14 02:06:08;;;;;;;60.53;24.83;;;0.20;69.20;;;;;;5045157;28;20037;-71
2022/01/14 02:08:34;;;;;;;48.83;23.05;;;-0.20;69.00;;;;;;5033272;28;20051;-71
2022/01/14 02:11:00;;;;;;;53.92;22.70;;;-0.20;68.90;;;;;;5035244;28;20502;-71
2022/01/14 02:13:27;;;;;;;60.25;26.33;;;-0.20;68.80;;;;;;5041066;28;20025;-71
2022/01/14 02:18:33;;;;;;;60.28;25.15;;;-0.20;68.80;;;;;;5045962;28;20039;-71
2022/01/14 02:23:51;;;;;;;52.33;21.77;;;0.00;68.90;;;;;;5032724;28;19916;-71
2022/01/14 02:26:19;;;;;;;51.50;24.38;;;-0.20;68.50;;;;;;5039734;28;20029;-71
2022/01/14 02:28:47;;;;;;;51.90;24.38;;;-0.20;68.40;;;;;;5042714;28;20094;-71
2022/01/14 02:31:12;;;;;;;53.88;24.15;;;-0.20;68.30;;;;;;5039608;28;20473;-71
2022/01/14 02:33:38;;;;;;;55.85;23.80;;;-0.30;68.20;;;;;;5031487;28;20083;-72
2022/01/14 02:36:05;;;;;;;50.40;22.80;;;-0.10;68.40;;;;;;5044995;28;20025;-72
2022/01/14 02:38:31;;;;;;;54.00;23.55;;;-0.30;68.30;;;;;;5036527;28;20025;-71
2022/01/14 02:40:57;;;;;;;48.10;22.40;;;-0.30;68.40;;;;;;5038833;28;20026;-71
2022/01/14 02:43:25;;;;;;;52.15;24.23;;;-0.30;68.40;;;;;;5032121;28;20022;-72
2022/01/14 02:45:53;;;;;;;49.70;22.52;;;-0.30;68.40;;;;;;5041469;28;20021;-71
2022/01/14 02:48:29;;;;;;;54.17;23.15;;;-0.30;68.40;;;;;;5041346;28;20393;-71
2022/01/14 02:51:02;;;;;;;50.20;22.98;;;-0.30;68.40;;;;;;5041642;28;20049;-71
2022/01/14 02:56:19;;;;;;;45.55;21.30;;;-0.40;68.30;;;;;;5042377;28;20053;-71
2022/01/14 02:58:46;;;;;;;46.30;21.67;;;-0.30;68.40;;;;;;5032186;28;20026;-71
2022/01/14 03:01:16;;;;;;;46.75;21.92;;;-0.30;68.30;;;;;;5036416;28;20032;-71
2022/01/14 03:03:46;;;;;;;51.03;22.73;;;-0.40;68.10;;;;;;5033618;28;20025;-71
2022/01/14 03:06:13;;;;;;;51.03;22.73;;;-0.40;68.10;;;;;;5035622;28;20033;-71
2022/01/14 03:08:40;;;;;;;48.30;21.63;;;-0.30;68.20;;;;;;5039647;28;20029;-71
2022/01/14 03:11:09;;;;;;;51.47;23.02;;;-0.40;68.30;;;;;;5031019;28;20022;-71
2022/01/14 03:13:36;;;;;;;48.88;21.67;;;-0.30;68.40;;;;;;5042612;28;20029;-72
2022/01/14 03:16:02;;;;;;;45.88;21.35;;;-0.40;68.40;;;;;;5031903;28;20095;-72
2022/01/14 03:18:52;;;;;;;49.40;22.63;;;-0.40;68.30;;;;;;5033872;28;20033;-72
2022/01/14 03:21:17;;;;;;;45.95;20.90;;;-0.40;68.30;;;;;;5032778;28;20152;-71
2022/01/14 03:23:50;;;;;;;49.65;20.90;;;-0.40;68.30;;;;;;5040954;28;20484;-72
2022/01/14 03:26:21;;;;;;;38.65;19.15;;;-0.40;68.30;;;;;;5040528;28;20033;-71
2022/01/14 03:28:47;;;;;;;41.50;20.20;;;-0.40;68.30;;;;;;5042420;28;20041;-71
2022/01/14 03:31:13;;;;;;;42.95;19.98;;;-0.40;68.30;;;;;;5038054;28;20389;-71
2022/01/14 03:33:39;;;;;;;40.85;17.80;;;-0.40;68.30;;;;;;5036745;28;20044;-70
2022/01/14 03:36:06;;;;;;;39.03;17.48;;;-0.40;68.30;;;;;;5044683;28;20033;-71
2022/01/14 03:38:32;;;;;;;33.78;15.80;;;-0.40;68.30;;;;;;5049097;28;20354;-71
2022/01/14 03:40:58;;;;;;;33.50;16.63;;;-0.50;68.20;;;;;;5039589;28;20033;-71
2022/01/14 03:43:24;;;;;;;31.77;15.13;;;-0.40;68.20;;;;;;5051287;28;20096;-72
2022/01/14 03:45:50;;;;;;;32.17;15.25;;;-0.50;68.10;;;;;;5034148;28;20160;-71
2022/01/14 03:48:17;;;;;;;33.80;14.82;;;-0.50;68.20;;;;;;5033848;28;20771;-72
2022/01/14 03:50:43;;;;;;;26.45;12.48;;;-0.50;68.20;;;;;;5035538;28;20550;-72
2022/01/14 03:53:11;;;;;;;28.02;13.13;;;-0.50;68.30;;;;;;5039584;28;20449;-72
2022/01/14 03:55:42;;;;;;;29.40;14.02;;;-0.50;68.30;;;;;;5033936;28;20085;-72
2022/01/14 03:58:08;;;;;;;32.53;13.95;;;-0.40;68.40;;;;;;5035072;28;20359;-72
2022/01/14 04:00:35;;;;;;;31.13;14.25;;;-0.50;68.20;;;;;;5035285;28;20393;-71
2022/01/14 04:03:01;;;;;;;27.92;14.63;;;-0.50;68.40;;;;;;5035318;28;20017;-72
2022/01/14 04:05:26;;;;;;;27.20;13.65;;;-0.40;68.40;;;;;;5080776;28;20029;-72
2022/01/14 04:07:52;;;;;;;29.10;13.63;;;-0.50;68.40;;;;;;5035141;28;20022;-71
2022/01/14 04:10:18;;;;;;;29.50;13.52;;;-0.50;68.30;;;;;;5034968;28;20042;-71
2022/01/14 04:12:50;;;;;;;30.85;14.15;;;-0.50;68.20;;;;;;5035200;28;20025;-72
2022/01/14 04:18:15;;;;;;;26.33;13.02;;;-0.50;68.30;;;;;;5055048;28;20035;-72
2022/01/14 04:20:43;;;;;;;28.20;13.75;;;-0.50;68.20;;;;;;5042954;28;20025;-71
2022/01/14 04:23:13;;;;;;;30.35;15.13;;;-0.60;68.10;;;;;;5036028;28;20028;-71
2022/01/14 04:25:40;;;;;;;31.42;14.60;;;-0.50;68.20;;;;;;5040721;28;20124;-72
2022/01/14 04:28:07;;;;;;;30.67;14.80;;;-0.40;68.30;;;;;;5054298;28;20418;-70
2022/01/14 04:30:33;;;;;;;35.47;15.23;;;-0.50;68.30;;;;;;5054780;28;20104;-71
2022/01/14 04:32:59;;;;;;;33.60;15.15;;;-0.40;68.30;;;;;;5051833;28;20087;-72
2022/01/14 04:35:26;;;;;;;31.90;14.95;;;-0.60;68.10;;;;;;5034249;28;20041;-72
2022/01/14 04:37:52;;;;;;;31.65;15.35;;;-0.60;68.10;;;;;;5034734;28;20029;-72
2022/01/14 04:40:18;;;;;;;46.70;15.85;;;-0.60;68.10;;;;;;5034136;28;20022;-71
2022/01/14 04:42:44;;;;;;;31.77;15.18;;;-0.60;68.10;;;;;;5034467;28;20108;-72
2022/01/14 04:45:14;;;;;;;32.95;15.07;;;-0.60;68.10;;;;;;5034503;28;20025;-71
2022/01/14 04:47:46;;;;;;;32.28;15.30;;;-0.50;68.20;;;;;;5033070;28;20363;-72
2022/01/14 04:50:17;;;;;;;36.17;15.55;;;-0.60;68.30;;;;;;5034443;28;20065;-72
2022/01/14 04:52:45;;;;;;;30.17;14.52;;;-0.60;68.30;;;;;;5038826;28;20037;-72
2022/01/14 04:55:13;;;;;;;29.08;15.18;;;-0.60;68.40;;;;;;5054154;28;20385;-72
2022/01/14 04:57:39;;;;;;;22.88;11.32;;;-0.40;68.50;;;;;;5052526;28;20021;-71
2022/01/14 05:00:10;;;;;;;26.77;12.63;;;-0.60;69.10;;;;;;5054078;28;20028;-72
2022/01/14 05:02:37;;;;;;;26.05;12.70;;;-0.60;68.40;;;;;;5054251;28;20028;-72
2022/01/14 05:05:04;;;;;;;26.55;12.85;;;-0.60;68.20;;;;;;5046965;28;20031;-72
2022/01/14 05:07:30;;;;;;;29.63;13.50;;;-0.60;68.20;;;;;;5054022;28;20432;-72
2022/01/14 05:10:17;;;;;;;34.15;14.93;;;-0.60;68.20;;;;;;5053854;28;20108;-72
2022/01/14 05:12:42;;;;;;;32.83;15.70;;;-0.60;68.30;;;;;;5053372;28;20044;-72
2022/01/14 05:15:09;;;;;;;30.77;15.43;;;-0.60;68.20;;;;;;5053746;28;20116;-72
2022/01/14 05:17:35;;;;;;;32.35;15.57;;;-0.60;68.30;;;;;;5053934;28;20477;-71
2022/01/14 05:20:01;;;;;;;34.58;15.80;;;-0.60;68.30;;;;;;5053825;28;20396;-71
2022/01/14 05:22:27;;;;;;;33.15;15.85;;;-0.60;68.40;;;;;;5050747;28;20044;-72
2022/01/14 05:24:53;;;;;;;36.45;17.25;;;-0.60;68.30;;;;;;5033650;28;20470;-72
2022/01/14 05:27:19;;;;;;;36.20;17.25;;;-0.60;68.10;;;;;;5044360;28;20028;-71
2022/01/14 05:29:45;;;;;;;32.28;15.98;;;-0.60;68.00;;;;;;5051914;28;20057;-72
2022/01/14 05:32:13;;;;;;;31.42;15.15;;;-0.70;68.00;;;;;;5053497;28;20021;-72
2022/01/14 05:34:40;;;;;;;26.58;13.00;;;-0.60;68.10;;;;;;5053333;28;20028;-72
2022/01/14 05:37:07;;;;;;;22.45;11.75;;;-0.70;68.20;;;;;;5053535;28;20061;-72
2022/01/14 05:39:33;;;;;;;21.27;10.30;;;-0.70;68.20;;;;;;5053121;28;20029;-72
2022/01/14 05:42:00;;;;;;;18.73;9.43;;;-0.60;68.30;;;;;;5053305;28;20276;-72
2022/01/14 05:44:27;;;;;;;20.65;10.60;;;-0.70;68.10;;;;;;5053271;28;20025;-72
2022/01/14 05:46:54;;;;;;;22.63;10.43;;;-0.60;68.10;;;;;;5051068;28;20029;-72
2022/01/14 05:49:20;;;;;;;22.60;11.48;;;-0.70;68.00;;;;;;5052002;28;20170;-74
2022/01/14 05:51:46;;;;;;;30.48;12.60;;;-0.70;68.00;;;;;;5053263;28;20032;-73
2022/01/14 05:54:12;;;;;;;28.80;13.63;;;-0.70;68.00;;;;;;5033817;28;20037;-73
2022/01/14 05:56:38;;;;;;;30.65;14.60;;;-0.70;68.00;;;;;;5040518;28;20025;-72
2022/01/14 05:59:04;;;;;;;28.92;14.10;;;-0.70;68.00;;;;;;5053033;28;20575;-72
2022/01/14 06:01:33;;;;;;;28.30;13.55;;;-0.70;68.00;;;;;;5053032;28;20049;-72
2022/01/14 06:03:59;;;;;;;31.00;14.13;;;-0.70;68.10;;;;;;5044401;28;20466;-72
2022/01/14 06:06:25;;;;;;;30.35;13.68;;;-0.70;68.00;;;;;;5050449;28;20031;-72
2022/01/14 06:08:51;;;;;;;31.30;14.23;;;-0.70;68.00;;;;;;5052906;28;20098;-72
2022/01/14 06:11:17;;;;;;;28.92;14.27;;;-0.70;68.60;;;;;;5052892;28;20029;-71
2022/01/14 06:13:43;;;;;;;34.25;15.15;;;-0.50;68.10;;;;;;5032723;28;20017;-71
2022/01/14 06:16:09;;;;;;;30.73;14.98;;;-0.70;68.00;;;;;;5031632;28;20103;-72
2022/01/14 06:18:35;;;;;;;29.38;14.65;;;-0.70;68.00;;;;;;5045780;28;20026;-72
2022/01/14 06:21:00;;;;;;;34.30;16.08;;;-0.60;68.20;;;;;;5037243;28;20036;-71
2022/01/14 06:23:26;;;;;;;31.95;15.10;;;-0.80;68.10;;;;;;5051521;28;20017;-71
2022/01/14 06:25:52;;;;;;;31.45;13.60;;;-0.80;68.10;;;;;;5051000;28;20029;-71
2022/01/14 06:28:17;;;;;;;31.20;13.60;;;-0.80;68.10;;;;;;5047513;28;20045;-71
2022/01/14 06:30:43;;;;;;;31.58;14.32;;;-0.70;68.20;;;;;;5051581;28;20027;-72
2022/01/14 06:33:09;;;;;;;32.10;14.68;;;-0.80;68.20;;;;;;5052430;28;20163;-72
2022/01/14 06:35:35;;;;;;;32.53;14.75;;;-0.80;68.30;;;;;;5052387;28;20043;-72
2022/01/14 06:38:00;;;;;;;25.73;13.57;;;-0.80;68.30;;;;;;5052120;28;20442;-72
2022/01/14 06:40:30;;;;;;;24.88;12.15;;;-0.80;68.30;;;;;;5052589;28;20025;-72
2022/01/14 06:42:56;;;;;;;23.85;10.85;;;-0.80;68.30;;;;;;5052526;28;20079;-72
2022/01/14 06:45:22;;;;;;;25.00;10.75;;;-0.80;68.30;;;;;;5052137;28;20033;-72
2022/01/14 06:47:49;;;;;;;22.88;10.88;;;-0.80;68.30;;;;;;5051080;28;20027;-71
2022/01/14 06:50:15;;;;;;;21.05;9.85;;;-0.70;68.40;;;;;;5052379;28;20021;-71
2022/01/14 06:52:40;;;;;;;23.08;10.05;;;-0.80;68.30;;;;;;5047015;28;20499;-72
2022/01/14 06:55:07;;;;;;;19.23;9.30;;;-0.60;68.30;;;;;;5033967;28;20036;-72
2022/01/14 06:57:33;;;;;;;19.08;9.15;;;-0.80;68.10;;;;;;5054372;28;20027;-72
2022/01/14 06:59:59;;;;;;;27.98;12.20;;;-0.80;68.20;;;;;;5055127;28;20107;-72
2022/01/14 07:02:24;;;;;;;25.70;12.32;;;-0.70;68.30;;;;;;5056334;28;20020;-71
2022/01/14 07:04:50;;;;;;;30.83;11.73;;;-0.80;68.20;;;;;;5045080;28;20377;-71
2022/01/14 07:07:16;;;;;;;26.27;12.25;;;-0.70;68.30;;;;;;5056180;28;20060;-72
2022/01/14 07:09:56;;;;;;;23.08;10.82;;;-0.80;68.30;;;;;;5056286;28;20509;-72
2022/01/14 07:12:26;;;;;;;31.70;12.77;;;-0.80;68.30;;;;;;5047218;28;20021;-72
2022/01/14 07:14:52;;;;;;;33.33;13.55;;;-0.50;68.40;;;;;;5034932;28;20108;-72
2022/01/14 07:17:18;;;;;;;26.48;12.27;;;-0.70;68.20;;;;;;5034943;28;20021;-71
2022/01/14 07:19:46;;;;;;;34.47;14.55;;;-0.70;68.10;;;;;;5041995;28;20033;-71
2022/01/14 07:22:12;;;;;;;29.25;13.35;;;-0.80;68.00;;;;;;5055985;28;20151;-71
2022/01/14 07:24:37;;;;;;;30.50;15.05;;;-0.80;68.10;;;;;;5055907;28;20067;-71
2022/01/14 07:27:03;;;;;;;29.90;13.85;;;-0.70;68.20;;;;;;5053133;28;20037;-71
2022/01/14 07:29:29;;;;;;;26.35;13.55;;;-0.70;68.30;;;;;;5043891;28;20060;-72
2022/01/14 07:31:55;;;;;;;28.38;14.57;;;-0.70;68.40;;;;;;5054627;28;20021;-71
2022/01/14 07:34:20;;;;;;;27.58;13.20;;;-0.70;68.40;;;;;;5055620;28;20047;-72
2022/01/14 07:36:46;;;;;;;30.10;14.32;;;-0.70;68.20;;;;;;5055745;28;20405;-71
2022/01/14 07:39:12;;;;;;;35.13;14.48;;;-0.70;68.20;;;;;;5055723;28;20025;-71
2022/01/14 07:41:37;;;;;;;27.70;13.00;;;-0.70;68.20;;;;;;5053611;28;20029;-71
2022/01/14 07:44:04;;;;;;;30.42;13.75;;;-0.60;68.30;;;;;;5035701;28;20021;-72
2022/01/14 07:46:30;;;;;;;24.08;11.93;;;-0.60;68.40;;;;;;5043996;28;20031;-71
2022/01/14 07:48:55;;;;;;;20.58;10.57;;;-0.60;68.40;;;;;;5055663;28;20025;-72
2022/01/14 07:51:21;;;;;;;19.38;9.75;;;-0.60;68.30;;;;;;5054293;28;20453;-71
2022/01/14 07:53:47;;;;;;;20.70;9.45;;;-0.50;68.40;;;;;;5039531;28;20437;-71
2022/01/14 07:56:13;;;;;;;18.63;8.98;;;-0.50;68.50;;;;;;5045812;28;20029;-71
2022/01/14 07:58:40;;;;;;;18.15;9.32;;;-0.50;68.50;;;;;;5055212;28;20096;-72
2022/01/14 08:01:07;;;;;;;18.83;8.65;;;-0.30;68.70;;;;;;5053951;28;20025;-72
2022/01/14 08:03:32;;;;;;;19.67;9.35;;;-0.30;68.80;;;;;;5046743;28;20482;-71
2022/01/14 08:05:58;;;;;;;19.23;9.60;;;-0.40;68.70;;;;;;5055140;28;20025;-71
2022/01/14 08:08:24;;;;;;;25.05;12.90;;;-0.30;68.80;;;;;;5054449;28;20461;-71
2022/01/14 08:10:50;;;;;;;29.27;12.85;;;-0.30;68.80;;;;;;5055138;28;20029;-71
2022/01/14 08:13:16;;;;;;;23.13;11.15;;;-0.20;68.80;;;;;;5054795;28;20082;-71
2022/01/14 08:15:42;;;;;;;22.23;11.20;;;-0.10;69.00;;;;;;5054654;28;20068;-72
2022/01/14 08:18:09;;;;;;;21.50;11.43;;;-0.10;69.00;;;;;;5054820;28;20491;-71
2022/01/14 08:20:34;;;;;;;21.50;11.38;;;0.00;69.10;;;;;;5054862;28;20120;-72
2022/01/14 08:23:00;;;;;;;21.42;11.48;;;0.10;69.10;;;;;;5054953;28;20184;-71
2022/01/14 08:25:27;;;;;;;22.45;12.18;;;0.20;69.10;;;;;;5054813;28;20098;-71
2022/01/14 08:27:53;;;;;;;27.83;13.93;;;0.30;69.20;;;;;;5054548;28;20537;-72
2022/01/14 08:30:19;;;;;;;34.22;15.93;;;0.60;69.40;;;;;;5054593;28;20135;-71
2022/01/14 08:32:44;;;;;;;46.50;22.77;;;0.50;69.40;;;;;;5036514;28;20028;-71
2022/01/14 08:35:10;;;;;;;37.83;17.95;;;0.70;69.50;;;;;;5034713;28;20037;-72
2022/01/14 08:37:39;;;;;;;33.97;15.70;;;0.80;69.60;;;;;;5034399;28;20382;-71
2022/01/14 08:40:08;;;;;;;33.50;13.48;;;0.90;69.50;;;;;;5033324;28;20076;-72
2022/01/14 08:42:34;;;;;;;28.95;13.52;;;1.00;69.40;;;;;;5033441;28;20032;-71
2022/01/14 08:44:59;;;;;;;26.50;12.85;;;1.20;69.30;;;;;;5034459;28;20448;-72
2022/01/14 08:47:25;;;;;;;29.33;14.10;;;1.30;69.20;;;;;;5034652;28;20477;-72
2022/01/14 08:49:51;;;;;;;26.90;13.75;;;1.60;69.10;;;;;;5033322;28;20029;-71
2022/01/14 08:52:17;;;;;;;24.67;12.82;;;1.50;68.90;;;;;;5035996;28;20028;-72
2022/01/14 08:54:43;;;;;;;23.17;11.70;;;1.70;68.90;;;;;;5054060;28;20431;-71
2022/01/14 08:57:09;;;;;;;21.75;11.55;;;1.80;68.80;;;;;;5053037;28;20021;-73
2022/01/14 08:59:36;;;;;;;19.98;8.75;;;1.90;68.70;;;;;;5054131;28;20025;-71
2022/01/14 09:02:03;;;;;;;19.15;10.00;;;2.00;68.40;;;;;;5054475;28;20100;-71
2022/01/14 09:04:28;;;;;;;17.17;8.90;;;2.10;68.30;;;;;;5053565;28;20025;-71
2022/01/14 09:06:55;;;;;;;22.83;10.40;;;2.20;68.30;;;;;;5053911;28;20091;-71
2022/01/14 09:09:20;;;;;;;18.33;9.35;;;2.30;68.10;;;;;;5054018;28;20040;-71
2022/01/14 09:11:46;;;;;;;16.67;9.43;;;2.50;68.10;;;;;;5040173;28;20030;-71
2022/01/14 09:14:12;;;;;;;18.05;9.20;;;2.70;68.00;;;;;;5033787;28;20048;-71
2022/01/14 09:16:38;;;;;;;21.08;11.00;;;2.60;67.80;;;;;;5032783;28;20017;-71
2022/01/14 09:19:04;;;;;;;20.55;10.73;;;2.70;67.80;;;;;;5033879;28;20033;-71
2022/01/14 09:21:29;;;;;;;21.30;11.88;;;2.80;67.80;;;;;;5032718;28;20029;-71
2022/01/14 09:24:04;;;;;;;21.50;14.05;;;2.90;67.70;;;;;;5049166;28;20225;-71
2022/01/14 09:26:32;;;;;;;25.05;12.90;;;3.00;67.70;;;;;;5051442;28;20116;-71
2022/01/14 09:28:58;;;;;;;22.92;12.52;;;3.10;67.60;;;;;;5039328;28;20505;-71
2022/01/14 09:31:24;;;;;;;18.15;9.63;;;3.20;67.50;;;;;;5033715;28;20040;-72
2022/01/14 09:33:50;;;;;;;19.67;11.85;;;3.30;67.40;;;;;;5033522;28;20017;-71
2022/01/14 09:36:15;;;;;;;26.60;16.13;;;3.40;67.30;;;;;;5033592;28;20374;-71
2022/01/14 09:38:42;;;;;;;30.17;16.52;;;3.70;67.20;;;;;;5033354;28;20024;-71
2022/01/14 09:41:08;;;;;;;21.58;12.10;;;3.60;67.00;;;;;;5037539;28;20017;-71
2022/01/14 09:43:36;;;;;;;23.50;13.25;;;3.70;67.70;;;;;;5053584;28;20531;-71
2022/01/14 09:46:05;;;;;;;20.98;11.88;;;3.80;66.80;;;;;;5038944;28;20017;-71
2022/01/14 09:48:31;;;;;;;21.88;12.18;;;4.00;66.70;;;;;;5032017;28;20027;-71
2022/01/14 09:50:57;;;;;;;22.17;11.40;;;4.10;66.70;;;;;;5032098;28;20428;-71
2022/01/14 09:53:26;;;;;;;22.23;11.32;;;4.20;66.60;;;;;;5033486;28;20033;-71
2022/01/14 09:55:51;;;;;;;19.35;10.85;;;4.30;66.60;;;;;;5048308;28;20040;-71
2022/01/14 09:58:17;;;;;;;20.48;11.77;;;4.50;66.60;;;;;;5053036;28;20439;-71
2022/01/14 10:00:43;;;;;;;17.80;10.15;;;4.60;66.40;;;;;;5053198;28;20032;-71
2022/01/14 10:03:20;;;;;;;18.33;9.43;;;4.70;66.20;;;;;;5037633;28;20355;-72
2022/01/14 10:05:51;;;;;;;18.30;9.00;;;4.80;65.80;;;;;;5052926;28;20029;-72
2022/01/14 10:08:21;;;;;;;13.98;8.35;;;4.90;65.90;;;;;;5052945;28;20024;-72
2022/01/14 10:10:50;;;;;;;18.58;7.80;;;5.00;65.50;;;;;;5052793;28;20158;-72
2022/01/14 10:13:24;;;;;;;13.05;7.10;;;5.10;65.20;;;;;;5051464;28;20132;-71
2022/01/14 10:15:52;;;;;;;14.13;7.75;;;5.20;64.90;;;;;;5052908;28;20033;-72
2022/01/14 10:18:21;;;;;;;17.42;8.15;;;5.20;65.00;;;;;;5052617;28;20020;-72
2022/01/14 10:20:49;;;;;;;15.73;7.70;;;5.30;64.80;;;;;;5051460;28;20024;-72
2022/01/14 10:23:15;;;;;;;17.05;8.50;;;5.40;64.60;;;;;;5051374;28;20028;-72
2022/01/14 10:25:53;;;;;;;15.82;8.65;;;5.50;64.50;;;;;;5051473;28;20128;-72
2022/01/14 10:28:20;;;;;;;18.65;10.38;;;5.60;64.60;;;;;;5040686;28;20049;-72
2022/01/14 10:30:48;;;;;;;18.40;10.57;;;5.70;64.40;;;;;;5052248;28;20041;-72
2022/01/14 10:33:19;;;;;;;16.58;9.15;;;5.70;64.30;;;;;;5052291;28;20017;-72
2022/01/14 10:35:46;;;;;;;18.63;11.25;;;5.90;64.00;;;;;;5047093;28;20038;-72
2022/01/14 10:38:18;;;;;;;16.55;10.18;;;5.90;63.90;;;;;;5032763;28;20029;-72
2022/01/14 10:41:07;;;;;;;27.15;17.77;;;6.10;63.80;;;;;;5032623;28;20013;-72
2022/01/14 10:43:38;;;;;;;30.20;19.08;;;6.10;63.30;;;;;;5032629;28;20020;-72
2022/01/14 10:46:07;;;;;;;20.85;12.43;;;6.30;64.00;;;;;;5032713;28;20029;-74
2022/01/14 10:48:34;;;;;;;23.02;12.55;;;6.40;64.00;;;;;;5031400;28;20084;-72
2022/01/14 10:51:05;;;;;;;15.20;10.10;;;6.50;63.80;;;;;;5032659;28;20106;-72
2022/01/14 10:53:35;;;;;;;14.45;8.50;;;6.60;63.40;;;;;;5032388;28;20075;-72
2022/01/14 10:56:06;;;;;;;23.55;15.27;;;6.60;63.60;;;;;;5032651;28;20037;-72
2022/01/14 10:58:35;;;;;;;17.98;10.68;;;6.70;63.40;;;;;;5031740;28;20029;-72
2022/01/14 11:01:14;;;;;;;13.10;8.55;;;6.80;63.20;;;;;;5032475;28;20053;-72
2022/01/14 11:03:44;;;;;;;14.65;8.00;;;6.80;63.20;;;;;;5047421;28;20393;-72
2022/01/14 11:06:29;;;;;;;13.38;7.75;;;6.90;63.00;;;;;;5040128;28;20380;-72
2022/01/14 11:09:00;;;;;;;15.10;7.25;;;7.00;62.60;;;;;;5052293;28;20091;-72
2022/01/14 11:11:27;;;;;;;12.95;8.05;;;7.10;62.90;;;;;;5034780;28;20025;-72
2022/01/14 11:13:53;;;;;;;13.30;7.10;;;7.20;63.00;;;;;;5032188;28;20032;-72
2022/01/14 11:16:19;;;;;;;18.83;8.18;;;7.30;63.00;;;;;;5032445;28;20108;-72
2022/01/14 11:18:46;;;;;;;17.13;7.78;;;7.40;63.00;;;;;;5039777;28;20032;-72
2022/01/14 11:23:57;;;;;;;13.88;7.10;;;7.60;62.90;;;;;;5051236;28;20396;-72
2022/01/14 11:26:29;;;;;;;12.70;7.03;;;7.70;62.90;;;;;;5051217;28;20087;-72
2022/01/14 11:29:01;;;;;;;14.45;8.40;;;7.70;62.40;;;;;;5031923;28;20465;-72
2022/01/14 11:31:28;;;;;;;14.75;8.02;;;7.80;62.60;;;;;;5043908;28;20056;-72
2022/01/14 11:33:55;;;;;;;20.13;9.38;;;8.00;62.60;;;;;;5052078;28;20263;-73
2022/01/14 11:36:21;;;;;;;13.10;7.20;;;8.10;62.30;;;;;;5052110;28;20094;-73
2022/01/14 11:38:47;;;;;;;13.05;8.13;;;8.20;62.20;;;;;;5050605;28;20021;-73
2022/01/14 11:41:19;;;;;;;13.18;7.65;;;8.30;62.10;;;;;;5052175;28;20070;-73
2022/01/14 11:43:47;;;;;;;12.90;7.75;;;8.30;61.80;;;;;;5052407;28;20029;-73
2022/01/14 11:46:16;;;;;;;14.30;7.82;;;8.40;61.90;;;;;;5054338;28;20022;-73
2022/01/14 11:48:49;;;;;;;15.27;8.80;;;8.50;61.70;;;;;;5054381;28;20027;-74
2022/01/14 11:51:17;;;;;;;19.10;8.95;;;8.60;61.70;;;;;;5055568;28;20028;-73
2022/01/14 11:53:53;;;;;;;15.75;8.88;;;8.70;61.70;;;;;;5055195;28;20025;-73
2022/01/14 11:56:31;;;;;;;13.63;9.02;;;8.80;61.60;;;;;;5055341;28;20047;-73
2022/01/14 11:59:18;;;;;;;12.68;8.77;;;8.90;60.80;;;;;;5055344;28;20024;-73
2022/01/14 12:01:47;;;;;;;14.68;9.15;;;8.90;60.40;;;;;;5042102;28;20120;-73
2022/01/14 12:04:14;;;;;;;21.73;10.15;;;9.00;61.20;;;;;;5044316;28;20081;-73
2022/01/14 12:06:54;;;;;;;17.75;9.65;;;9.10;61.50;;;;;;5055082;28;20482;-73
2022/01/14 12:09:23;;;;;;;18.75;11.60;;;9.20;60.70;;;;;;5053803;28;20143;-73
2022/01/14 12:12:24;;;;;;;20.00;12.13;;;9.30;61.00;;;;;;5055338;28;20056;-73
2022/01/14 12:14:58;;;;;;;21.83;11.65;;;9.40;60.50;;;;;;5053579;28;20095;-74
2022/01/14 12:17:41;;;;;;;18.25;11.63;;;9.40;61.20;;;;;;5054771;28;20033;-73
2022/01/14 12:20:18;;;;;;;20.88;10.93;;;9.50;60.40;;;;;;5046803;28;20037;-73
2022/01/14 12:23:05;;;;;;;15.55;10.48;;;9.60;60.50;;;;;;5035037;28;20022;-73
2022/01/14 12:25:39;;;;;;;18.60;11.30;;;9.70;60.00;;;;;;5035020;28;20021;-73
2022/01/14 12:28:18;;;;;;;;;;;9.80;60.50;;;;;;5038499;28;20032;-72
2022/01/14 12:31:04;;;;;;;22.75;10.63;;;9.90;60.90;;;;;;5054871;28;19916;-73
2022/01/14 12:33:40;;;;;;;18.90;10.60;;;10.00;60.70;;;;;;5054648;28;20115;-73
2022/01/14 12:36:18;;;;;;;20.02;11.60;;;10.00;60.60;;;;;;5039415;28;20043;-73
2022/01/14 12:38:44;;;;;;;18.17;11.43;;;10.10;60.60;;;;;;5034994;28;20088;-72
2022/01/14 12:41:21;;;;;;;27.90;13.48;;;10.10;61.00;;;;;;5045849;28;20123;-72
2022/01/14 12:43:53;;;;;;;24.95;14.07;;;10.20;60.30;;;;;;5045464;28;20610;-74
2022/01/14 12:46:35;;;;;;;27.50;15.30;;;10.30;60.60;;;;;;5051210;28;20104;-74
2022/01/14 12:49:08;;;;;;;25.88;15.00;;;10.30;60.70;;;;;;5041642;28;20036;-74
2022/01/14 12:51:34;;;;;;;30.60;15.57;;;10.40;60.30;;;;;;5038590;28;20026;-75
2022/01/14 12:54:04;;;;;;;24.63;14.02;;;10.50;60.60;;;;;;5037038;28;20040;-74
2022/01/14 12:56:32;;;;;;;27.38;14.88;;;10.50;60.60;;;;;;5034323;28;20033;-74
2022/01/14 12:59:15;;;;;;;21.95;13.77;;;10.60;60.50;;;;;;5035701;28;20025;-74
2022/01/14 13:01:47;;;;;;;24.25;13.55;;;10.70;59.70;;;;;;5049895;28;20075;-74
2022/01/14 13:04:18;;;;;;;24.95;14.90;;;10.70;60.20;;;;;;5036588;28;20469;-74
2022/01/14 13:06:51;;;;;;;24.10;14.80;;;10.80;59.70;;;;;;5039819;28;20033;-74